createdAt,value
2023-03-19T00:04:41.443Z,50.33
2023-03-19T00:07:12.490Z,50.92
2023-03-19T00:09:43.632Z,50.73
2023-03-19T00:12:14.824Z,53.23
2023-03-19T00:17:53.295Z,49.00
2023-03-19T00:28:52.869Z,47.17
2023-03-19T00:31:24.008Z,49.73
2023-03-19T00:33:55.022Z,48.10
2023-03-19T00:36:27.008Z,50.33
2023-03-19T00:38:58.735Z,51.58
2023-03-19T00:41:30.128Z,50.75
2023-03-19T00:44:01.440Z,52.00
2023-03-19T00:52:17.949Z,49.95
2023-03-19T00:54:48.931Z,51.33
2023-03-19T00:57:19.927Z,52.43
2023-03-19T00:59:50.821Z,50.45
2023-03-19T01:02:21.722Z,50.75
2023-03-19T01:04:52.893Z,53.38
2023-03-19T01:07:27.782Z,51.40
2023-03-19T01:09:58.706Z,50.83
2023-03-19T01:12:29.721Z,50.05
2023-03-19T01:26:52.837Z,50.45
2023-03-19T01:49:42.230Z,51.65
2023-03-19T02:04:04.436Z,50.35
2023-03-19T02:15:21.513Z,50.55
2023-03-19T02:24:08.399Z,52.03
2023-03-19T02:26:48.169Z,49.70
2023-03-19T02:29:21.846Z,53.58
2023-03-19T02:31:59.713Z,53.83
2023-03-19T02:37:42.712Z,53.90
2023-03-19T02:40:36.762Z,52.55
2023-03-19T02:55:01.458Z,54.20
2023-03-19T03:22:49.370Z,53.23
2023-03-19T03:25:30.393Z,52.25
2023-03-19T03:34:01.550Z,53.77
2023-03-19T03:36:32.110Z,50.33
2023-03-19T03:39:03.055Z,50.08
2023-03-19T03:41:34.246Z,48.10
2023-03-19T03:44:05.197Z,48.20
2023-03-19T03:46:36.778Z,48.00
2023-03-19T03:49:17.257Z,47.05
2023-03-19T03:51:48.170Z,47.17
2023-03-19T03:54:19.097Z,45.15
2023-03-19T03:56:51.760Z,45.20
2023-03-19T03:59:23.041Z,46.88
2023-03-19T04:01:54.053Z,45.40
2023-03-19T04:04:25.078Z,47.08
2023-03-19T04:06:55.973Z,47.73
2023-03-19T04:09:27.587Z,45.83
2023-03-19T04:11:58.470Z,44.93
2023-03-19T04:14:29.575Z,46.40
2023-03-19T04:17:00.497Z,43.00
2023-03-19T04:19:31.389Z,45.12
2023-03-19T04:22:03.907Z,49.67
2023-03-19T04:24:34.838Z,48.68
2023-03-19T04:27:05.784Z,46.18
2023-03-19T04:29:36.922Z,43.63
2023-03-19T04:32:08.296Z,44.58
2023-03-19T04:34:39.219Z,44.20
2023-03-19T04:37:11.557Z,43.40
2023-03-19T04:39:42.534Z,44.08
2023-03-19T04:42:13.621Z,43.02
2023-03-19T04:44:44.555Z,45.50
2023-03-19T04:47:16.057Z,41.60
2023-03-19T04:49:46.997Z,44.73
2023-03-19T04:52:17.930Z,42.88
2023-03-19T04:54:49.110Z,43.98
2023-03-19T04:57:20.018Z,43.73
2023-03-19T04:59:50.956Z,43.35
2023-03-19T05:02:22.032Z,44.35
2023-03-19T05:04:54.678Z,45.58
2023-03-19T05:07:25.381Z,39.40
2023-03-19T05:10:01.774Z,41.68
2023-03-19T05:15:02.791Z,39.40
2023-03-19T05:17:36.573Z,39.95
2023-03-19T05:20:09.799Z,36.15
2023-03-19T05:22:40.872Z,38.13
2023-03-19T05:25:12.162Z,37.50
2023-03-19T05:27:43.270Z,37.20
2023-03-19T05:30:23.709Z,42.03
2023-03-19T05:32:54.889Z,33.05
2023-03-19T05:35:25.846Z,33.85
2023-03-19T05:37:57.259Z,36.50
2023-03-19T05:40:32.589Z,42.85
2023-03-19T05:43:03.753Z,43.37
2023-03-19T05:45:34.707Z,42.60
2023-03-19T05:48:09.176Z,44.67
2023-03-19T05:50:39.698Z,42.90
2023-03-19T05:53:10.639Z,43.28
2023-03-19T05:55:41.855Z,36.42
2023-03-19T05:58:12.809Z,37.70
2023-03-19T06:00:43.903Z,37.53
2023-03-19T06:03:14.867Z,35.78
2023-03-19T06:05:46.442Z,34.45
2023-03-19T06:08:20.766Z,35.60
2023-03-19T06:10:51.889Z,34.03
2023-03-19T06:13:22.842Z,34.43
2023-03-19T06:15:53.781Z,33.85
2023-03-19T06:18:24.801Z,35.23
2023-03-19T06:20:55.890Z,45.15
2023-03-19T06:23:28.174Z,33.38
2023-03-19T06:25:59.094Z,33.48
2023-03-19T06:28:30.016Z,34.73
2023-03-19T06:31:01.700Z,32.58
2023-03-19T06:33:36.497Z,33.50
2023-03-19T06:36:09.598Z,31.60
2023-03-19T06:38:40.881Z,30.60
2023-03-19T06:41:12.093Z,34.25
2023-03-19T06:43:44.109Z,29.85
2023-03-19T06:46:15.151Z,31.85
2023-03-19T06:48:46.095Z,30.00
2023-03-19T06:51:17.031Z,30.97
2023-03-19T06:53:48.678Z,29.90
2023-03-19T06:56:19.661Z,30.25
2023-03-19T06:58:52.508Z,30.55
2023-03-19T07:01:24.235Z,30.02
2023-03-19T07:03:56.230Z,29.45
2023-03-19T07:06:28.456Z,30.50
2023-03-19T07:08:59.479Z,31.10
2023-03-19T07:11:36.562Z,33.15
2023-03-19T07:14:09.539Z,32.30
2023-03-19T07:16:40.471Z,30.25
2023-03-19T07:19:11.397Z,30.90
2023-03-19T07:21:42.794Z,34.35
2023-03-19T07:24:13.697Z,32.38
2023-03-19T07:26:45.101Z,32.80
2023-03-19T07:29:16.131Z,28.70
2023-03-19T07:31:47.162Z,35.55
2023-03-19T07:34:19.290Z,32.85
2023-03-19T07:36:50.412Z,31.35
2023-03-19T07:39:21.716Z,28.30
2023-03-19T07:41:53.234Z,28.87
2023-03-19T07:44:24.590Z,28.42
2023-03-19T07:46:55.828Z,29.65
2023-03-19T07:49:26.778Z,29.63
2023-03-19T07:51:57.805Z,33.35
2023-03-19T07:54:28.839Z,32.42
2023-03-19T07:56:59.739Z,30.52
2023-03-19T07:59:30.733Z,38.20
2023-03-19T08:02:01.676Z,30.97
2023-03-19T08:04:32.864Z,30.55
2023-03-19T08:07:06.362Z,31.60
2023-03-19T08:09:38.492Z,30.45
2023-03-19T08:12:10.560Z,31.50
2023-03-19T08:14:41.565Z,34.38
2023-03-19T08:17:12.627Z,36.85
2023-03-19T08:19:43.675Z,36.73
2023-03-19T08:22:14.658Z,35.45
2023-03-19T08:24:45.569Z,37.58
2023-03-19T08:27:16.468Z,36.05
2023-03-19T08:29:47.417Z,36.00
2023-03-19T08:32:22.141Z,35.13
2023-03-19T08:34:55.855Z,35.63
2023-03-19T08:37:28.237Z,33.65
2023-03-19T08:39:59.217Z,32.45
2023-03-19T08:42:30.267Z,33.60
2023-03-19T08:45:01.166Z,31.55
2023-03-19T08:47:32.285Z,35.15
2023-03-19T08:50:03.195Z,35.75
2023-03-19T08:52:34.404Z,31.50
2023-03-19T08:55:05.321Z,34.58
2023-03-19T08:57:36.599Z,36.17
2023-03-19T09:00:08.981Z,34.80
2023-03-19T09:02:39.920Z,35.25
2023-03-19T09:05:12.430Z,34.50
2023-03-19T09:07:45.726Z,34.85
2023-03-19T09:10:22.453Z,37.28
2023-03-19T09:15:23.273Z,34.67
2023-03-19T09:17:54.418Z,32.38
2023-03-19T09:20:25.513Z,32.50
2023-03-19T09:22:56.539Z,32.10
2023-03-19T09:25:27.428Z,32.00
2023-03-19T09:27:58.329Z,34.05
2023-03-19T09:30:30.450Z,32.80
2023-03-19T09:33:01.660Z,40.73
2023-03-19T09:35:34.612Z,36.05
2023-03-19T09:38:06.210Z,35.03
2023-03-19T09:40:48.914Z,34.43
2023-03-19T09:43:32.107Z,35.48
2023-03-19T09:46:04.789Z,34.75
2023-03-19T09:48:42.170Z,34.92
2023-03-19T09:51:15.449Z,34.50
2023-03-19T09:54:01.450Z,34.00
2023-03-19T09:59:04.319Z,36.93
2023-03-19T10:01:38.308Z,36.13
2023-03-19T10:04:38.957Z,35.03
2023-03-19T10:07:44.209Z,33.98
2023-03-19T10:10:24.269Z,36.42
2023-03-19T10:13:17.736Z,34.83
2023-03-19T10:15:50.194Z,33.92
2023-03-19T10:18:26.868Z,35.23
2023-03-19T10:21:03.717Z,33.70
2023-03-19T10:23:36.986Z,35.13
2023-03-19T10:26:10.241Z,35.15
2023-03-19T10:28:43.327Z,34.67
2023-03-19T10:31:28.832Z,34.08
2023-03-19T10:34:33.643Z,35.03
2023-03-19T10:37:06.878Z,35.17
2023-03-19T10:39:39.925Z,34.73
2023-03-19T10:42:29.334Z,35.63
2023-03-19T10:45:06.756Z,39.27
2023-03-19T10:47:42.351Z,37.45
2023-03-19T10:50:21.534Z,39.73
2023-03-19T10:52:57.441Z,37.25
2023-03-19T10:55:30.460Z,37.63
2023-03-19T10:58:06.265Z,38.55
2023-03-19T11:00:37.929Z,38.35
2023-03-19T11:03:11.141Z,39.00
2023-03-19T11:05:42.054Z,38.42
2023-03-19T11:08:32.852Z,36.28
2023-03-19T11:10:51.914Z,39.25
2023-03-19T11:13:28.184Z,38.23
2023-03-19T11:16:01.378Z,36.85
2023-03-19T11:18:35.140Z,41.05
2023-03-19T11:21:11.391Z,43.20
2023-03-19T11:23:45.691Z,43.08
2023-03-19T11:26:19.162Z,45.33
2023-03-19T11:28:57.330Z,45.17
2023-03-19T11:31:47.951Z,37.70
2023-03-19T11:34:46.464Z,99.60
2023-03-19T11:37:35.209Z,70.15
2023-03-19T11:40:40.665Z,73.55
2023-03-19T11:43:29.824Z,52.30
2023-03-19T11:46:09.407Z,54.15
2023-03-19T11:49:08.075Z,48.87
2023-03-19T11:51:58.700Z,46.58
2023-03-19T11:55:05.580Z,44.40
2023-03-19T11:57:51.536Z,41.95
2023-03-19T12:00:46.507Z,45.15
2023-03-19T12:03:27.130Z,44.03
2023-03-19T12:06:00.402Z,41.50
2023-03-19T12:08:56.172Z,43.65
2023-03-19T12:11:32.193Z,40.10
2023-03-19T12:14:17.298Z,42.95
2023-03-19T12:17:25.773Z,42.25
2023-03-19T12:20:05.213Z,42.55
2023-03-19T12:23:06.094Z,43.15
2023-03-19T12:25:48.028Z,42.25
2023-03-19T12:28:32.478Z,42.90
2023-03-19T12:31:09.699Z,41.77
2023-03-19T12:33:52.800Z,41.58
2023-03-19T12:36:20.084Z,40.67
2023-03-19T12:38:53.782Z,40.58
2023-03-19T12:41:32.201Z,40.58
2023-03-19T12:44:07.063Z,41.92
2023-03-19T12:46:40.746Z,44.25
2023-03-19T12:49:34.621Z,41.88
2023-03-19T12:55:55.167Z,37.80
2023-03-19T12:57:53.963Z,36.85
2023-03-19T13:00:41.458Z,39.63
2023-03-19T13:03:43.344Z,38.25
2023-03-19T13:06:16.587Z,37.63
2023-03-19T13:08:59.413Z,38.75
2023-03-19T13:11:55.809Z,38.13
2023-03-19T13:14:56.485Z,37.35
2023-03-19T13:20:55.825Z,37.45
2023-03-19T13:23:31.667Z,37.40
2023-03-19T13:26:05.627Z,35.25
2023-03-19T13:28:39.305Z,36.90
2023-03-19T13:31:17.012Z,36.00
2023-03-19T13:34:08.114Z,35.68
2023-03-19T13:36:43.245Z,34.65
2023-03-19T13:39:19.846Z,36.20
2023-03-19T13:42:01.882Z,36.20
2023-03-19T13:44:35.385Z,36.38
2023-03-19T13:47:14.649Z,36.83
2023-03-19T13:49:50.022Z,35.08
2023-03-19T13:52:24.394Z,36.45
2023-03-19T13:55:00.145Z,36.40
2023-03-19T13:57:44.640Z,35.67
2023-03-19T14:00:46.060Z,36.55
2023-03-19T14:03:25.735Z,36.35
2023-03-19T14:06:00.105Z,36.65
2023-03-19T14:08:33.776Z,34.27
2023-03-19T14:11:06.806Z,36.63
2023-03-19T14:13:45.855Z,36.50
2023-03-19T14:16:28.301Z,36.03
2023-03-19T14:19:05.983Z,36.70
2023-03-19T14:21:47.089Z,35.73
2023-03-19T14:24:56.813Z,35.88
2023-03-19T14:27:25.461Z,35.52
2023-03-19T14:30:00.173Z,37.20
2023-03-19T14:32:32.843Z,36.38
2023-03-19T14:35:06.264Z,36.00
2023-03-19T14:37:56.350Z,36.65
2023-03-19T14:40:54.498Z,36.03
2023-03-19T14:43:58.962Z,38.20
2023-03-19T14:46:35.293Z,37.25
2023-03-19T14:49:39.478Z,36.90
2023-03-19T14:52:28.718Z,37.43
2023-03-19T14:55:12.703Z,37.60
2023-03-19T14:57:44.877Z,36.58
2023-03-19T15:00:21.180Z,37.17
2023-03-19T15:03:01.780Z,39.03
2023-03-19T15:05:35.922Z,38.30
2023-03-19T15:08:09.634Z,39.48
2023-03-19T15:11:12.392Z,38.67
2023-03-19T15:14:02.028Z,38.45
2023-03-19T15:17:02.880Z,39.35
2023-03-19T15:19:34.923Z,39.67
2023-03-19T15:22:14.465Z,38.60
2023-03-19T15:24:45.908Z,39.15
2023-03-19T15:27:40.446Z,40.30
2023-03-19T15:30:27.414Z,38.55
2023-03-19T15:33:11.958Z,38.20
2023-03-19T15:35:37.517Z,37.95
2023-03-19T15:38:14.353Z,39.05
2023-03-19T15:40:45.667Z,39.23
2023-03-19T15:43:17.301Z,38.88
2023-03-19T15:45:54.254Z,37.53
2023-03-19T15:48:30.658Z,40.58
2023-03-19T15:51:04.228Z,40.58
2023-03-19T15:53:37.545Z,38.83
2023-03-19T15:56:09.767Z,38.45
2023-03-19T15:58:43.285Z,39.38
2023-03-19T16:01:16.199Z,40.05
2023-03-19T16:03:55.411Z,39.98
2023-03-19T16:06:36.053Z,39.83
2023-03-19T16:09:18.598Z,36.75
2023-03-19T16:11:49.903Z,37.55
2023-03-19T16:14:41.775Z,37.73
2023-03-19T16:17:18.372Z,38.65
2023-03-19T16:22:34.033Z,36.70
2023-03-19T16:25:06.287Z,36.73
2023-03-19T16:27:39.655Z,36.93
2023-03-19T16:30:34.366Z,37.17
2023-03-19T16:33:06.757Z,38.53
2023-03-19T16:35:38.794Z,38.38
2023-03-19T16:38:26.785Z,36.90
2023-03-19T16:41:21.413Z,38.17
2023-03-19T16:43:55.182Z,36.93
2023-03-19T16:46:27.855Z,37.15
2023-03-19T16:48:59.714Z,37.30
2023-03-19T16:51:30.911Z,36.45
2023-03-19T16:54:04.610Z,37.98
2023-03-19T16:56:38.474Z,36.15
2023-03-19T16:59:08.903Z,36.13
2023-03-19T17:01:40.299Z,37.15
2023-03-19T17:04:13.884Z,38.15
2023-03-19T17:06:44.898Z,39.18
2023-03-19T17:09:26.062Z,37.17
2023-03-19T17:11:58.037Z,38.15
2023-03-19T17:14:29.318Z,36.58
2023-03-19T17:17:02.615Z,37.63
2023-03-19T17:19:39.751Z,37.42
2023-03-19T17:22:14.642Z,38.15
2023-03-19T17:24:46.018Z,38.60
2023-03-19T17:27:17.850Z,38.98
2023-03-19T17:29:49.116Z,37.05
2023-03-19T17:32:22.468Z,39.40
2023-03-19T17:34:53.514Z,39.38
2023-03-19T17:37:24.531Z,41.83
2023-03-19T17:39:55.949Z,41.58
2023-03-19T17:42:28.005Z,41.20
2023-03-19T17:45:01.791Z,40.33
2023-03-19T17:47:32.925Z,40.45
2023-03-19T17:50:04.288Z,39.95
2023-03-19T17:52:39.784Z,39.95
2023-03-19T17:55:27.822Z,38.75
2023-03-19T17:57:59.347Z,37.35
2023-03-19T18:00:30.482Z,38.10
2023-03-19T18:03:01.871Z,37.70
2023-03-19T18:05:32.966Z,36.17
2023-03-19T18:08:03.906Z,37.63
2023-03-19T18:10:36.470Z,36.98
2023-03-19T18:13:08.039Z,36.80
2023-03-19T18:15:40.417Z,36.10
2023-03-19T18:18:13.990Z,37.30
2023-03-19T18:20:46.543Z,34.58
2023-03-19T18:23:18.511Z,35.08
2023-03-19T18:25:49.453Z,35.43
2023-03-19T18:28:20.592Z,36.55
2023-03-19T18:30:51.630Z,34.48
2023-03-19T18:33:24.982Z,34.92
2023-03-19T18:35:56.519Z,35.33
2023-03-19T18:38:30.924Z,34.85
2023-03-19T18:41:02.365Z,33.25
2023-03-19T18:43:33.593Z,33.45
2023-03-19T18:46:04.539Z,34.83
2023-03-19T18:48:35.769Z,35.43
2023-03-19T18:51:07.852Z,35.30
2023-03-19T18:53:38.748Z,35.60
2023-03-19T18:56:24.482Z,35.10
2023-03-19T18:58:56.428Z,34.48
2023-03-19T19:01:28.386Z,34.25
2023-03-19T19:03:59.341Z,34.98
2023-03-19T19:06:46.367Z,35.45
2023-03-19T19:09:05.934Z,34.43
2023-03-19T19:11:37.808Z,34.33
2023-03-19T19:14:11.159Z,34.27
2023-03-19T19:16:42.746Z,35.45
2023-03-19T19:19:25.572Z,34.67
2023-03-19T19:21:57.196Z,33.35
2023-03-19T19:24:28.554Z,32.15
2023-03-19T19:27:01.684Z,33.42
2023-03-19T19:29:33.518Z,34.08
2023-03-19T19:32:05.632Z,33.23
2023-03-19T19:34:39.730Z,32.83
2023-03-19T19:37:13.502Z,33.50
2023-03-19T19:39:44.684Z,31.97
2023-03-19T19:42:18.184Z,32.75
2023-03-19T19:44:51.746Z,32.75
2023-03-19T19:47:22.757Z,31.90
2023-03-19T19:49:54.123Z,30.57
2023-03-19T19:52:29.334Z,32.35
2023-03-19T19:55:00.877Z,29.03
2023-03-19T19:57:32.478Z,30.80
2023-03-19T20:00:06.079Z,32.38
2023-03-19T20:02:37.042Z,31.57
2023-03-19T20:05:08.402Z,31.27
2023-03-19T20:07:39.560Z,28.23
2023-03-19T20:10:11.325Z,28.35
2023-03-19T20:12:44.771Z,28.50
2023-03-19T20:15:21.160Z,26.85
2023-03-19T20:17:53.045Z,26.02
2023-03-19T20:20:24.994Z,26.02
2023-03-19T20:22:57.362Z,26.77
2023-03-19T20:25:31.124Z,26.90
2023-03-19T20:28:03.874Z,26.15
2023-03-19T20:30:38.252Z,25.50
2023-03-19T20:33:10.574Z,25.37
2023-03-19T20:35:41.977Z,23.85
2023-03-19T20:38:15.359Z,26.12
2023-03-19T20:40:51.698Z,25.62
2023-03-19T20:43:34.064Z,27.30
2023-03-19T20:46:07.958Z,26.33
2023-03-19T20:48:39.521Z,26.40
2023-03-19T20:51:11.935Z,25.77
2023-03-19T20:53:43.520Z,26.93
2023-03-19T20:56:17.319Z,25.72
2023-03-19T20:58:48.976Z,26.42
2023-03-19T21:01:20.971Z,26.73
2023-03-19T21:03:51.913Z,27.42
2023-03-19T21:06:28.424Z,28.20
2023-03-19T21:09:01.526Z,27.25
2023-03-19T21:11:43.356Z,26.37
2023-03-19T21:14:18.071Z,28.05
2023-03-19T21:16:49.034Z,27.98
2023-03-19T21:19:20.544Z,29.12
2023-03-19T21:21:51.774Z,30.68
2023-03-19T21:24:24.284Z,31.37
2023-03-19T21:26:56.870Z,29.70
2023-03-19T21:29:30.192Z,29.87
2023-03-19T21:32:01.809Z,30.40
2023-03-19T21:34:33.090Z,29.60
2023-03-19T21:37:03.981Z,28.55
2023-03-19T21:39:34.898Z,28.75
2023-03-19T21:42:09.626Z,28.62
2023-03-19T21:44:41.981Z,28.32
2023-03-19T21:47:24.141Z,27.60
2023-03-19T21:49:55.998Z,28.00
2023-03-19T21:52:26.942Z,25.68
2023-03-19T21:54:58.522Z,27.30
2023-03-19T21:57:30.157Z,26.80
2023-03-19T22:00:01.136Z,26.07
2023-03-19T22:02:34.713Z,26.10
2023-03-19T22:05:07.348Z,27.10
2023-03-19T22:07:39.166Z,26.30
2023-03-19T22:10:10.678Z,26.17
2023-03-19T22:12:42.636Z,27.77
2023-03-19T22:15:22.974Z,28.70
2023-03-19T22:17:53.889Z,28.70
2023-03-19T22:20:27.479Z,29.02
2023-03-19T22:22:59.573Z,28.70
2023-03-19T22:25:33.330Z,27.90
2023-03-19T22:28:06.848Z,29.52
2023-03-19T22:30:40.452Z,28.75
2023-03-19T22:33:25.057Z,28.73
2023-03-19T22:35:56.381Z,28.55
2023-03-19T22:38:27.584Z,29.57
2023-03-19T22:40:59.298Z,28.98
2023-03-19T22:43:36.213Z,28.98
2023-03-19T22:46:15.428Z,31.10
2023-03-19T22:48:50.162Z,31.35
2023-03-19T22:51:24.871Z,31.17
2023-03-19T22:53:56.742Z,29.92
2023-03-19T22:56:28.200Z,32.50
2023-03-19T22:58:59.349Z,32.05
2023-03-19T23:01:32.901Z,31.65
2023-03-19T23:04:06.495Z,30.05
2023-03-19T23:06:37.728Z,31.97
2023-03-19T23:09:09.298Z,30.60
2023-03-19T23:11:40.655Z,30.30
2023-03-19T23:14:26.100Z,29.12
2023-03-19T23:16:47.013Z,30.75
2023-03-19T23:19:20.705Z,29.67
2023-03-19T23:21:52.164Z,29.67
2023-03-19T23:24:23.622Z,30.30
2023-03-19T23:26:57.615Z,37.23
2023-03-19T23:29:31.453Z,30.88
2023-03-19T23:32:02.914Z,29.27
2023-03-19T23:34:42.335Z,31.12
2023-03-19T23:37:07.119Z,29.85
2023-03-19T23:39:39.749Z,31.05
2023-03-19T23:42:11.975Z,32.85
2023-03-19T23:44:44.820Z,35.52
2023-03-19T23:47:16.650Z,35.80
2023-03-19T23:49:47.616Z,38.17
2023-03-19T23:52:18.647Z,38.05
2023-03-19T23:54:49.870Z,39.63
2023-03-19T23:57:22.297Z,40.65
2023-03-19T23:59:54.518Z,42.78
